Time;durP1;ratioP1;P1;durP2;ratioP2;P2;SDS_P1;SDS_P2;PMS_P1;PMS_P2;Temp;Humidity;BMP_temperature;BMP_pressure;BME280_temperature;BME280_humidity;BME280_pressure;Samples;Min_cycle;Max_cycle;Signal;HPM_P1;HPM_P2
2023/10/18 00:01:26;;;;;;;;;;;19.60;99.90;;;;;;5112529;28;19938;-70
2023/10/18 00:03:54;;;;;;;;;;;19.40;99.90;;;;;;5112779;28;19908;-69
2023/10/18 00:06:22;;;;;;;;;;;19.40;99.90;;;;;;5112482;28;19907;-69
2023/10/18 00:08:57;;;;;;;;;;;19.50;99.90;;;;;;5112416;28;20012;-71
2023/10/18 00:11:25;;;;;;;;;;;19.50;99.90;;;;;;5113327;28;19908;-68
2023/10/18 00:13:53;;;;;;;;;;;19.70;99.90;;;;;;5115934;28;19986;-69
2023/10/18 00:16:24;;;;;;;;;;;19.90;99.90;;;;;;5116360;28;19908;-68
2023/10/18 00:18:50;;;;;;;;;;;20.00;99.90;;;;;;5115831;28;19908;-67
2023/10/18 00:21:17;;;;;;;;;;;20.10;99.90;;;;;;5097527;28;20325;-71
2023/10/18 00:23:44;;;;;;;;;;;20.10;99.90;;;;;;5115766;28;19935;-68
2023/10/18 00:26:14;;;;;;;;;;;20.20;99.90;;;;;;5115934;28;19951;-68
2023/10/18 00:28:40;;;;;;;;;;;20.60;99.30;;;;;;5115772;28;19908;-69
2023/10/18 00:31:17;;;;;;;;;;;20.90;98.70;;;;;;5115743;28;19930;-70
2023/10/18 00:33:47;;;;;;;;;;;21.20;98.70;;;;;;5115843;28;19918;-71
2023/10/18 00:36:17;;;;;;;;;;;21.30;98.10;;;;;;5115760;28;19914;-70
2023/10/18 00:38:44;;;;;;;;;;;21.30;97.40;;;;;;5097653;28;19908;-71
2023/10/18 00:41:59;;;;;;;;;;;21.00;96.90;;;;;;5115580;28;19923;-69
2023/10/18 00:43:57;;;;;;;;;;;20.80;96.90;;;;;;5104171;28;20358;-71
2023/10/18 00:46:24;;;;;;;;;;;20.60;96.90;;;;;;5115732;28;19907;-70
2023/10/18 00:48:51;;;;;;;;;;;20.50;96.90;;;;;;5115441;28;19920;-70
2023/10/18 00:51:18;;;;;;;;;;;20.40;97.40;;;;;;5115410;28;19911;-71
2023/10/18 00:53:48;;;;;;;;;;;20.40;97.20;;;;;;5115431;28;19908;-70
2023/10/18 00:56:18;;;;;;;;;;;20.30;97.80;;;;;;5115554;28;20360;-71
2023/10/18 00:58:44;;;;;;;;;;;20.50;98.00;;;;;;5115417;28;20388;-68
2023/10/18 01:01:11;;;;;;;;;;;20.50;97.40;;;;;;5114833;28;19923;-69
2023/10/18 01:03:38;;;;;;;;;;;20.60;96.90;;;;;;5115043;28;19994;-70
2023/10/18 01:06:08;;;;;;;;;;;21.10;97.30;;;;;;5115385;28;19915;-71
2023/10/18 01:08:38;;;;;;;;;;;21.60;96.70;;;;;;5115043;28;19914;-69
2023/10/18 01:11:10;;;;;;;;;;;21.90;95.70;;;;;;5115137;28;19911;-68
2023/10/18 01:13:47;;;;;;;;;;;21.90;94.80;;;;;;5115203;28;19914;-70
2023/10/18 01:16:15;;;;;;;;;;;21.80;94.00;;;;;;5115207;28;19908;-68
2023/10/18 01:18:48;;;;;;;;;;;21.70;94.80;;;;;;5114917;28;19907;-69
2023/10/18 01:21:22;;;;;;;;;;;22.10;94.90;;;;;;5114656;28;19916;-69
2023/10/18 01:23:53;;;;;;;;;;;22.50;94.20;;;;;;5114841;28;20367;-69
2023/10/18 01:26:27;;;;;;;;;;;22.80;92.90;;;;;;5114640;28;20348;-69
2023/10/18 01:28:55;;;;;;;;;;;23.00;92.30;;;;;;5114767;28;19915;-71
2023/10/18 01:31:22;;;;;;;;;;;23.20;93.00;;;;;;5114716;28;20353;-67
2023/10/18 01:33:50;;;;;;;;;;;23.30;91.40;;;;;;5114572;28;20368;-70
2023/10/18 01:36:17;;;;;;;;;;;23.40;91.10;;;;;;5114207;28;19911;-68
2023/10/18 01:38:48;;;;;;;;;;;23.40;91.60;;;;;;5114411;28;19915;-69
2023/10/18 01:41:34;;;;;;;;;;;23.30;90.60;;;;;;5114220;28;19916;-71
2023/10/18 01:44:07;;;;;;;;;;;23.20;90.10;;;;;;5114432;28;20003;-71
2023/10/18 01:46:48;;;;;;;;;;;23.00;90.70;;;;;;5114624;28;19912;-70
2023/10/18 01:49:21;;;;;;;;;;;23.00;90.00;;;;;;5114255;28;19926;-72
2023/10/18 01:51:51;;;;;;;;;;;23.30;91.70;;;;;;5114226;28;20003;-70
2023/10/18 01:54:18;;;;;;;;;;;23.80;88.00;;;;;;5114110;28;19915;-70
2023/10/18 01:56:47;;;;;;;;;;;24.10;86.10;;;;;;5114024;28;19914;-70
2023/10/18 01:59:17;;;;;;;;;;;24.30;87.10;;;;;;5113608;28;19912;-69
2023/10/18 02:01:53;;;;;;;;;;;24.40;86.90;;;;;;5113703;28;19915;-71
2023/10/18 02:04:27;;;;;;;;;;;24.10;85.20;;;;;;5113804;28;19911;-73
2023/10/18 02:07:00;;;;;;;;;;;23.80;85.30;;;;;;5113560;28;19915;-66
2023/10/18 02:09:52;;;;;;;;;;;23.70;85.10;;;;;;5113506;28;19908;-71
2023/10/18 02:12:19;;;;;;;;;;;23.60;84.90;;;;;;5112835;28;20277;-71
2023/10/18 02:14:46;;;;;;;;;;;23.50;86.50;;;;;;5113681;28;19908;-71
2023/10/18 02:17:12;;;;;;;;;;;23.80;85.50;;;;;;5112681;28;19912;-68
2023/10/18 02:19:39;;;;;;;;;;;23.90;83.80;;;;;;5113726;28;19916;-71
2023/10/18 02:22:09;;;;;;;;;;;23.90;86.00;;;;;;5113729;28;19908;-68
2023/10/18 02:24:36;;;;;;;;;;;23.80;84.70;;;;;;5113655;28;19908;-72
2023/10/18 02:27:03;;;;;;;;;;;23.70;84.30;;;;;;5113270;28;19947;-71
2023/10/18 02:29:35;;;;;;;;;;;23.70;86.10;;;;;;5112261;28;19911;-72
2023/10/18 02:32:11;;;;;;;;;;;24.10;86.20;;;;;;5093914;28;20003;-69
2023/10/18 02:34:46;;;;;;;;;;;24.50;85.30;;;;;;5111641;28;19915;-70
2023/10/18 02:37:15;;;;;;;;;;;24.90;82.90;;;;;;5112486;28;19908;-70
2023/10/18 02:39:42;;;;;;;;;;;24.60;81.40;;;;;;5112043;28;19912;-70
2023/10/18 02:42:09;;;;;;;;;;;24.30;82.80;;;;;;5112102;28;19919;-66
2023/10/18 02:44:37;;;;;;;;;;;24.80;84.10;;;;;;5113427;28;20272;-72
2023/10/18 02:47:22;;;;;;;;;;;25.50;81.20;;;;;;5112721;28;19908;-70
2023/10/18 02:49:52;;;;;;;;;;;26.60;78.70;;;;;;5113132;28;19911;-72
2023/10/18 02:52:19;;;;;;;;;;;27.10;76.50;;;;;;5113111;28;19936;-69
2023/10/18 02:54:48;;;;;;;;;;;26.90;77.20;;;;;;5113296;28;19961;-68
2023/10/18 02:57:15;;;;;;;;;;;27.60;74.90;;;;;;5113150;28;20000;-70
2023/10/18 02:59:43;;;;;;;;;;;27.60;76.10;;;;;;5112907;28;19973;-70
2023/10/18 03:02:24;;;;;;;;;;;27.30;74.00;;;;;;5113056;28;19915;-67
2023/10/18 03:04:52;;;;;;;;;;;27.20;76.60;;;;;;5113326;28;19915;-68
2023/10/18 03:07:19;;;;;;;;;;;27.80;73.70;;;;;;5112880;28;19943;-70
2023/10/18 03:09:49;;;;;;;;;;;28.60;73.10;;;;;;5112192;28;19937;-70
2023/10/18 03:12:16;;;;;;;;;;;30.00;70.70;;;;;;5111215;28;19961;-68
2023/10/18 03:14:54;;;;;;;;;;;30.90;68.00;;;;;;5111549;28;19992;-73
2023/10/18 03:19:51;;;;;;;;;;;32.50;64.10;;;;;;5108953;28;19950;-67
2023/10/18 03:22:21;;;;;;;;;;;32.00;62.60;;;;;;5111447;28;20433;-70
2023/10/18 03:24:54;;;;;;;;;;;31.20;64.60;;;;;;5109137;28;20352;-67
2023/10/18 03:27:21;;;;;;;;;;;31.10;63.40;;;;;;5111809;28;19999;-65
2023/10/18 03:29:48;;;;;;;;;;;32.00;63.20;;;;;;5109025;28;19908;-69
2023/10/18 03:32:15;;;;;;;;;;;32.40;62.80;;;;;;5111345;28;19953;-69
2023/10/18 03:34:42;;;;;;;;;;;31.90;62.60;;;;;;5110998;28;19999;-69
2023/10/18 03:37:18;;;;;;;;;;;30.60;64.20;;;;;;5111599;28;19914;-66
2023/10/18 03:39:49;;;;;;;;;;;30.40;64.30;;;;;;5111182;28;19916;-66
2023/10/18 03:42:31;;;;;;;;;;;29.60;65.70;;;;;;5111066;28;19908;-66
2023/10/18 03:45:00;;;;;;;;;;;29.40;65.00;;;;;;5110618;28;20378;-70
2023/10/18 03:47:36;;;;;;;;;;;29.00;67.30;;;;;;5112175;28;19964;-70
2023/10/18 03:50:03;;;;;;;;;;;28.40;67.40;;;;;;5107237;28;19934;-71
2023/10/18 03:52:29;;;;;;;;;;;28.30;67.60;;;;;;5115133;28;19922;-70
2023/10/18 03:57:29;;;;;;;;;;;30.70;66.30;;;;;;5114056;28;20325;-71
2023/10/18 03:59:59;;;;;;;;;;;31.40;62.40;;;;;;5116436;28;20368;-71
2023/10/18 04:05:18;;;;;;;;;;;31.60;62.80;;;;;;5100629;28;20384;-72
2023/10/18 04:07:41;;;;;;;;;;;31.20;64.20;;;;;;5100377;28;19907;-76
2023/10/18 04:10:12;;;;;;;;;;;31.90;64.10;;;;;;5111328;27;19912;-71
2023/10/18 04:12:43;;;;;;;;;;;31.50;62.10;;;;;;5113782;28;20388;-72
2023/10/18 04:15:22;;;;;;;;;;;30.90;61.60;;;;;;5112059;28;20313;-73
2023/10/18 04:18:30;;;;;;;;;;;29.80;62.60;;;;;;5110630;28;19916;-68
2023/10/18 04:20:40;;;;;;;;;;;29.10;65.00;;;;;;5103022;28;19915;-73
2023/10/18 04:23:19;;;;;;;;;;;29.10;64.90;;;;;;5107783;28;19955;-74
2023/10/18 04:25:57;;;;;;;;;;;28.20;66.80;;;;;;5107651;28;19955;-71
2023/10/18 04:28:24;;;;;;;;;;;28.10;68.60;;;;;;5109253;28;19947;-72
2023/10/18 04:30:59;;;;;;;;;;;27.90;66.50;;;;;;5088299;28;20475;-67
2023/10/18 04:33:28;;;;;;;;;;;28.70;67.10;;;;;;5110430;28;20384;-72
2023/10/18 04:35:59;;;;;;;;;;;31.20;63.20;;;;;;5108852;28;19910;-73
2023/10/18 04:38:36;;;;;;;;;;;32.70;64.10;;;;;;5111296;28;20303;-69
2023/10/18 04:41:24;;;;;;;;;;;34.10;61.50;;;;;;5109313;28;19938;-67
2023/10/18 04:44:07;;;;;;;;;;;34.90;58.10;;;;;;5113148;28;19951;-68
2023/10/18 04:46:37;;;;;;;;;;;34.50;58.30;;;;;;5108118;28;19915;-73
2023/10/18 04:57:11;;;;;;;;;;;31.90;61.30;;;;;;5064020;28;19966;-71
2023/10/18 04:59:48;;;;;;;;;;;32.10;60.60;;;;;;5112610;28;19915;-69
2023/10/18 05:02:17;;;;;;;;;;;33.10;59.30;;;;;;5110481;28;19942;-70
2023/10/18 05:04:47;;;;;;;;;;;33.90;58.80;;;;;;5108033;27;19919;-72
2023/10/18 05:09:43;;;;;;;;;;;34.50;57.00;;;;;;5108861;28;19950;-69
2023/10/18 05:14:43;;;;;;;;;;;34.20;57.00;;;;;;5109474;27;19912;-73
2023/10/18 05:17:10;;;;;;;;;;;34.80;57.90;;;;;;5105773;28;19999;-70
2023/10/18 05:19:44;;;;;;;;;;;35.50;56.80;;;;;;5107641;28;19953;-71
2023/10/18 05:22:19;;;;;;;;;;;36.30;56.10;;;;;;5104035;28;19922;-71
2023/10/18 05:24:56;;;;;;;;;;;36.20;57.10;;;;;;5112936;27;19912;-67
2023/10/18 05:27:27;;;;;;;;;;;36.10;54.60;;;;;;5108926;28;19908;-73
2023/10/18 05:29:58;;;;;;;;;;;35.30;56.00;;;;;;5104833;28;19908;-70
2023/10/18 05:35:21;;;;;;;;;;;35.20;55.40;;;;;;5109853;28;19916;-74
2023/10/18 05:37:58;;;;;;;;;;;35.80;55.40;;;;;;5108395;28;19972;-71
2023/10/18 05:43:05;;;;;;;;;;;35.00;55.10;;;;;;5110868;28;19950;-72
2023/10/18 05:45:33;;;;;;;;;;;34.60;56.30;;;;;;5113414;28;20364;-70
2023/10/18 05:48:22;;;;;;;;;;;34.70;56.70;;;;;;5113149;28;19931;-72
2023/10/18 05:50:49;;;;;;;;;;;34.00;56.60;;;;;;5099718;27;21461;-74
2023/10/18 05:53:18;;;;;;;;;;;34.40;57.10;;;;;;5112766;27;19912;-70
2023/10/18 05:55:54;;;;;;;;;;;34.90;56.20;;;;;;5113316;28;20364;-67
2023/10/18 05:58:26;;;;;;;;;;;34.70;56.00;;;;;;5112333;28;19934;-68
2023/10/18 06:00:55;;;;;;;;;;;34.00;56.70;;;;;;5107575;28;20389;-68
2023/10/18 06:03:25;;;;;;;;;;;34.10;56.10;;;;;;5108256;28;19911;-69
2023/10/18 06:05:55;;;;;;;;;;;34.30;56.20;;;;;;5098542;28;20365;-69
2023/10/18 06:08:23;;;;;;;;;;;34.10;55.60;;;;;;5098701;28;19959;-73
2023/10/18 06:11:13;;;;;;;;;;;33.20;57.10;;;;;;5099426;27;19916;-71
2023/10/18 06:13:40;;;;;;;;;;;32.60;58.30;;;;;;5104814;28;19919;-71
2023/10/18 06:16:18;;;;;;;;;;;32.00;58.10;;;;;;5111818;28;19911;-72
2023/10/18 06:18:50;;;;;;;;;;;31.40;59.30;;;;;;5107651;28;19923;-68
2023/10/18 06:21:20;;;;;;;;;;;31.30;60.50;;;;;;5110076;28;19928;-70
2023/10/18 06:23:56;;;;;;;;;;;31.20;60.20;;;;;;5109520;28;19915;-69
2023/10/18 06:26:29;;;;;;;;;;;31.60;59.90;;;;;;5109323;28;20395;-72
2023/10/18 06:29:00;;;;;;;;;;;30.90;59.30;;;;;;5110314;28;19907;-72
2023/10/18 06:31:28;;;;;;;;;;;29.90;60.80;;;;;;5108968;28;19908;-75
2023/10/18 06:33:59;;;;;;;;;;;28.80;61.80;;;;;;5111394;27;19912;-76
2023/10/18 06:36:26;;;;;;;;;;;27.90;63.00;;;;;;5109563;28;19915;-70
2023/10/18 06:38:56;;;;;;;;;;;28.30;62.90;;;;;;5109310;28;19911;-74
2023/10/18 06:41:22;;;;;;;;;;;29.40;61.40;;;;;;5109062;28;20291;-75
2023/10/18 06:43:49;;;;;;;;;;;29.70;60.90;;;;;;5112176;28;20387;-71
2023/10/18 06:46:22;;;;;;;;;;;29.30;61.10;;;;;;5111519;28;19911;-71
2023/10/18 06:48:50;;;;;;;;;;;28.50;62.90;;;;;;5095011;28;19920;-72
2023/10/18 06:51:30;;;;;;;;;;;28.20;63.80;;;;;;5109553;28;20303;-72
2023/10/18 06:54:03;;;;;;;;;;;28.30;63.50;;;;;;5112461;28;19951;-72
2023/10/18 06:56:39;;;;;;;;;;;28.40;62.90;;;;;;5087212;28;19919;-76
2023/10/18 06:59:10;;;;;;;;;;;27.90;63.90;;;;;;5077681;28;20384;-71
2023/10/18 07:01:58;;;;;;;;;;;27.10;65.20;;;;;;5112541;28;20023;-73
2023/10/18 07:04:28;;;;;;;;;;;27.20;65.30;;;;;;5112915;28;20384;-74
2023/10/18 07:06:55;;;;;;;;;;;26.60;66.50;;;;;;5112053;28;19916;-72
2023/10/18 07:09:26;;;;;;;;;;;24.90;68.40;;;;;;5078707;28;19915;-75
2023/10/18 07:11:57;;;;;;;;;;;24.00;71.40;;;;;;5111878;28;19969;-67
2023/10/18 07:14:24;;;;;;;;;;;23.50;72.50;;;;;;5093811;28;19923;-68
2023/10/18 07:17:14;;;;;;;;;;;23.30;73.80;;;;;;5112600;28;19922;-71
2023/10/18 07:19:55;;;;;;;;;;;23.10;75.10;;;;;;5095309;28;20080;-71
2023/10/18 07:23:17;;;;;;;;;;;22.80;75.10;;;;;;5095732;28;19947;-68
2023/10/18 07:25:12;;;;;;;;;;;22.50;75.90;;;;;;5085413;27;19935;-68
2023/10/18 07:27:41;;;;;;;;;;;22.10;76.80;;;;;;5103419;28;20005;-68
2023/10/18 07:30:14;;;;;;;;;;;21.50;78.90;;;;;;5104866;27;19907;-68
2023/10/18 07:32:42;;;;;;;;;;;21.30;79.90;;;;;;5115955;28;19912;-67
2023/10/18 07:35:12;;;;;;;;;;;21.30;81.10;;;;;;5115097;28;19915;-68
2023/10/18 07:37:43;;;;;;;;;;;21.10;82.30;;;;;;5116336;28;19915;-73
2023/10/18 07:40:21;;;;;;;;;;;20.90;82.70;;;;;;5116903;28;19920;-72
2023/10/18 07:42:51;;;;;;;;;;;20.80;83.40;;;;;;5117292;28;19911;-76
2023/10/18 07:45:21;;;;;;;;;;;20.50;84.90;;;;;;5116557;28;19955;-77
2023/10/18 07:47:54;;;;;;;;;;;20.30;84.60;;;;;;5116457;28;19922;-75
2023/10/18 07:53:06;;;;;;;;;;;20.20;86.70;;;;;;5116013;28;19912;-75
2023/10/18 07:55:41;;;;;;;;;;;20.00;87.30;;;;;;5116661;28;19933;-76
2023/10/18 07:58:32;;;;;;;;;;;19.90;88.40;;;;;;5115756;28;19911;-75
2023/10/18 08:03:29;;;;;;;;;;;19.60;89.90;;;;;;5116111;28;19929;-74
2023/10/18 08:05:56;;;;;;;;;;;19.40;90.30;;;;;;5115283;28;20371;-76
2023/10/18 08:08:26;;;;;;;;;;;19.30;90.90;;;;;;5115052;28;20360;-71
2023/10/18 08:10:54;;;;;;;;;;;19.20;91.30;;;;;;5083893;28;19919;-78
2023/10/18 08:13:30;;;;;;;;;;;19.20;91.30;;;;;;5097273;28;20265;-77
2023/10/18 08:16:01;;;;;;;;;;;19.10;91.50;;;;;;5078145;28;19958;-76
2023/10/18 08:18:43;;;;;;;;;;;19.00;92.20;;;;;;5096497;28;20353;-75
2023/10/18 08:21:25;;;;;;;;;;;19.00;92.40;;;;;;5095581;28;20015;-73
2023/10/18 08:23:56;;;;;;;;;;;18.80;93.30;;;;;;5095800;28;19915;-67
2023/10/18 08:26:29;;;;;;;;;;;18.70;93.10;;;;;;5095063;28;19912;-70
2023/10/18 08:28:57;;;;;;;;;;;18.60;93.50;;;;;;5097979;28;20006;-69
2023/10/18 08:31:29;;;;;;;;;;;18.50;94.20;;;;;;5114616;28;19919;-68
2023/10/18 08:33:56;;;;;;;;;;;18.40;94.20;;;;;;5115232;28;20287;-67
2023/10/18 08:36:31;;;;;;;;;;;18.30;95.00;;;;;;5109994;28;19912;-69
2023/10/18 08:39:02;;;;;;;;;;;18.30;95.50;;;;;;5096779;28;20008;-71
2023/10/18 08:41:37;;;;;;;;;;;18.30;96.00;;;;;;5095385;28;19969;-72
2023/10/18 08:44:18;;;;;;;;;;;18.30;96.20;;;;;;5096610;28;19908;-72
2023/10/18 08:49:51;;;;;;;;;;;18.30;96.30;;;;;;5095200;28;20318;-70
2023/10/18 08:52:23;;;;;;;;;;;18.20;96.20;;;;;;5099845;28;19908;-69
2023/10/18 08:54:51;;;;;;;;;;;18.20;96.50;;;;;;5115082;28;19925;-67
2023/10/18 08:57:35;;;;;;;;;;;18.10;96.80;;;;;;5115547;28;19998;-77
2023/10/18 09:02:45;;;;;;;;;;;18.10;97.50;;;;;;5115583;28;19912;-70
2023/10/18 09:05:12;;;;;;;;;;;18.00;97.60;;;;;;5114154;28;20010;-70
2023/10/18 09:07:44;;;;;;;;;;;18.00;97.60;;;;;;5114461;28;19912;-71
2023/10/18 09:15:36;;;;;;;;;;;17.90;98.50;;;;;;5114404;28;19912;-74
2023/10/18 09:18:08;;;;;;;;;;;17.90;98.80;;;;;;5104362;28;19912;-69
2023/10/18 09:20:37;;;;;;;;;;;17.80;98.60;;;;;;5094034;28;19924;-71
2023/10/18 09:23:05;;;;;;;;;;;17.80;99.80;;;;;;5094083;28;19951;-72
2023/10/18 09:26:01;;;;;;;;;;;17.80;99.60;;;;;;5094219;28;20256;-67
2023/10/18 09:28:32;;;;;;;;;;;17.70;99.50;;;;;;5093133;28;20391;-71
2023/10/18 09:31:11;;;;;;;;;;;17.70;99.90;;;;;;5093771;28;19908;-69
2023/10/18 09:33:38;;;;;;;;;;;17.60;99.90;;;;;;5093848;28;19961;-70
2023/10/18 09:36:18;;;;;;;;;;;17.70;99.90;;;;;;5093821;28;19916;-70
2023/10/18 09:38:44;;;;;;;;;;;17.60;99.90;;;;;;5099433;28;20280;-67
2023/10/18 09:41:11;;;;;;;;;;;17.60;99.90;;;;;;5107170;28;20011;-69
2023/10/18 09:43:38;;;;;;;;;;;17.60;99.90;;;;;;5106634;28;20431;-67
2023/10/18 09:46:05;;;;;;;;;;;17.50;99.90;;;;;;5107179;28;20308;-72
2023/10/18 09:48:32;;;;;;;;;;;17.40;99.90;;;;;;5110734;28;19920;-68
2023/10/18 09:51:09;;;;;;;;;;;17.40;99.90;;;;;;5111414;28;20100;-66
2023/10/18 09:53:43;;;;;;;;;;;17.40;99.90;;;;;;5110984;28;19912;-66
2023/10/18 09:56:17;;;;;;;;;;;17.40;99.90;;;;;;5113350;28;19915;-70
2023/10/18 09:58:49;;;;;;;;;;;17.40;99.90;;;;;;5112832;28;20424;-68
2023/10/18 10:01:53;;;;;;;;;;;17.30;99.90;;;;;;5111199;28;19965;-67
2023/10/18 10:04:23;;;;;;;;;;;17.30;99.90;;;;;;5111155;28;20276;-66
2023/10/18 10:06:55;;;;;;;;;;;17.30;99.90;;;;;;5111400;28;19912;-73
2023/10/18 10:09:29;;;;;;;;;;;17.20;99.90;;;;;;5113596;28;19908;-74
2023/10/18 10:11:55;;;;;;;;;;;17.20;99.90;;;;;;5111697;28;19921;-67
2023/10/18 10:14:22;;;;;;;;;;;17.20;99.90;;;;;;5093018;28;19994;-74
2023/10/18 10:16:58;;;;;;;;;;;17.10;99.90;;;;;;5096140;28;19919;-76
2023/10/18 10:19:31;;;;;;;;;;;17.10;99.90;;;;;;5093076;28;19908;-70
2023/10/18 10:22:04;;;;;;;;;;;17.00;99.90;;;;;;5102199;28;19923;-68
2023/10/18 10:24:50;;;;;;;;;;;17.00;99.90;;;;;;5074278;28;20416;-71
2023/10/18 10:30:48;;;;;;;;;;;17.00;99.90;;;;;;5093288;28;19912;-67
2023/10/18 10:32:53;;;;;;;;;;;17.00;99.90;;;;;;5078770;28;19919;-69
2023/10/18 10:35:27;;;;;;;;;;;17.00;99.90;;;;;;5092814;28;19912;-71
2023/10/18 10:37:54;;;;;;;;;;;16.90;99.90;;;;;;5092696;28;19935;-74
2023/10/18 10:43:02;;;;;;;;;;;16.80;99.90;;;;;;5110195;28;19911;-67
2023/10/18 10:50:52;;;;;;;;;;;16.80;99.90;;;;;;5113316;28;19907;-74
2023/10/18 10:53:32;;;;;;;;;;;16.70;99.90;;;;;;5098825;28;19919;-69
2023/10/18 10:56:03;;;;;;;;;;;16.70;99.90;;;;;;5093749;28;20368;-65
2023/10/18 10:58:38;;;;;;;;;;;16.50;99.90;;;;;;5112659;28;19911;-66
2023/10/18 11:01:05;;;;;;;;;;;16.50;99.90;;;;;;5102778;28;19921;-65
2023/10/18 11:03:48;;;;;;;;;;;16.50;99.90;;;;;;5092449;28;19999;-67
2023/10/18 11:06:20;;;;;;;;;;;16.50;99.90;;;;;;5092759;28;19943;-66
2023/10/18 11:08:47;;;;;;;;;;;16.40;99.90;;;;;;5112807;28;19914;-67
2023/10/18 11:11:14;;;;;;;;;;;16.30;99.90;;;;;;5112595;28;20061;-73
2023/10/18 11:13:41;;;;;;;;;;;16.40;99.90;;;;;;5112417;28;19998;-74
2023/10/18 11:16:11;;;;;;;;;;;16.40;99.90;;;;;;5112906;28;19952;-66
2023/10/18 11:18:42;;;;;;;;;;;16.30;99.90;;;;;;5113032;28;20360;-68
2023/10/18 11:21:29;;;;;;;;;;;16.30;99.90;;;;;;5112735;28;20298;-73
2023/10/18 11:24:02;;;;;;;;;;;16.20;99.90;;;;;;5111922;28;19911;-75
2023/10/18 11:26:29;;;;;;;;;;;16.20;99.90;;;;;;5112826;28;19950;-70
2023/10/18 11:28:59;;;;;;;;;;;16.10;99.90;;;;;;5112373;28;19951;-67
2023/10/18 11:31:29;;;;;;;;;;;16.20;99.90;;;;;;5112642;28;19915;-66
2023/10/18 11:34:13;;;;;;;;;;;16.10;99.90;;;;;;5112441;28;20385;-71
2023/10/18 11:36:42;;;;;;;;;;;16.10;99.90;;;;;;5112721;28;19987;-70
2023/10/18 11:39:18;;;;;;;;;;;16.10;99.90;;;;;;5112703;28;19931;-70
2023/10/18 11:41:48;;;;;;;;;;;16.10;99.90;;;;;;5112862;28;19916;-69
2023/10/18 11:44:26;;;;;;;;;;;16.00;99.90;;;;;;5092104;28;19912;-68
2023/10/18 11:46:56;;;;;;;;;;;16.10;99.90;;;;;;5092502;28;19961;-69
2023/10/18 11:49:34;;;;;;;;;;;16.10;99.90;;;;;;5092076;28;19920;-69
2023/10/18 11:52:01;;;;;;;;;;;16.10;99.90;;;;;;5092341;28;19916;-72
2023/10/18 11:54:29;;;;;;;;;;;16.10;99.90;;;;;;5092276;28;20376;-71
2023/10/18 11:56:56;;;;;;;;;;;16.20;99.90;;;;;;5091981;28;19994;-72
2023/10/18 11:59:24;;;;;;;;;;;16.10;99.90;;;;;;5092342;28;19908;-71
2023/10/18 12:01:55;;;;;;;;;;;16.10;99.90;;;;;;5092329;28;19912;-69
2023/10/18 12:04:27;;;;;;;;;;;16.10;99.90;;;;;;5092001;28;20373;-71
2023/10/18 12:06:56;;;;;;;;;;;16.20;99.90;;;;;;5094260;28;19912;-68
2023/10/18 12:09:26;;;;;;;;;;;16.20;99.90;;;;;;5096057;28;19955;-67
2023/10/18 12:11:53;;;;;;;;;;;16.10;99.90;;;;;;5095576;28;19915;-73
2023/10/18 12:14:22;;;;;;;;;;;16.20;99.90;;;;;;5095450;28;19962;-69
2023/10/18 12:16:55;;;;;;;;;;;16.10;99.90;;;;;;5078084;28;19912;-71
2023/10/18 12:19:21;;;;;;;;;;;16.20;99.90;;;;;;5095764;28;19961;-70
2023/10/18 12:21:54;;;;;;;;;;;16.20;99.90;;;;;;5095603;28;19916;-75
2023/10/18 12:24:21;;;;;;;;;;;16.10;99.90;;;;;;5095628;28;19934;-70
2023/10/18 12:26:53;;;;;;;;;;;16.20;99.90;;;;;;5095635;28;20414;-72
2023/10/18 12:29:26;;;;;;;;;;;16.20;99.90;;;;;;5095028;28;20011;-72
2023/10/18 12:31:54;;;;;;;;;;;16.30;99.90;;;;;;5094991;28;20391;-73
2023/10/18 12:34:43;;;;;;;;;;;16.30;99.90;;;;;;5113473;28;19943;-75
2023/10/18 12:37:13;;;;;;;;;;;16.40;99.90;;;;;;5115978;28;19912;-72
2023/10/18 12:39:46;;;;;;;;;;;16.40;99.90;;;;;;5115771;28;19912;-75
2023/10/18 12:42:14;;;;;;;;;;;16.30;99.90;;;;;;5115111;28;20284;-72
2023/10/18 12:44:41;;;;;;;;;;;16.30;99.90;;;;;;5115276;28;19912;-72
2023/10/18 12:47:10;;;;;;;;;;;16.30;99.90;;;;;;5095515;28;20353;-74
2023/10/18 12:49:44;;;;;;;;;;;16.20;99.90;;;;;;5095257;28;19967;-73
2023/10/18 12:52:41;;;;;;;;;;;16.20;99.90;;;;;;5094826;28;19916;-71
2023/10/18 12:55:00;;;;;;;;;;;16.20;99.90;;;;;;5094530;28;19912;-74
2023/10/18 12:57:32;;;;;;;;;;;16.10;99.90;;;;;;5095010;28;19909;-73
2023/10/18 13:00:16;;;;;;;;;;;16.10;99.90;;;;;;5094556;28;19916;-72
2023/10/18 13:05:22;;;;;;;;;;;16.00;99.90;;;;;;5094901;28;20238;-74
2023/10/18 13:07:55;;;;;;;;;;;16.00;99.90;;;;;;5110807;28;19922;-72
2023/10/18 13:10:31;;;;;;;;;;;16.00;99.90;;;;;;5096721;28;20011;-65
2023/10/18 13:13:04;;;;;;;;;;;16.00;99.90;;;;;;5115139;28;19914;-73
2023/10/18 13:15:34;;;;;;;;;;;16.00;99.90;;;;;;5115136;28;19969;-77
2023/10/18 13:18:01;;;;;;;;;;;16.10;99.90;;;;;;5113719;28;19911;-69
2023/10/18 13:20:34;;;;;;;;;;;16.10;99.90;;;;;;5115053;28;19916;-69
2023/10/18 13:23:01;;;;;;;;;;;16.10;99.90;;;;;;5114761;28;20006;-69
2023/10/18 13:25:37;;;;;;;;;;;16.20;99.90;;;;;;5114937;28;19914;-70
2023/10/18 13:28:07;;;;;;;;;;;16.10;99.90;;;;;;5114398;28;19933;-67
2023/10/18 13:30:54;;;;;;;;;;;16.10;99.90;;;;;;5114904;28;19915;-70
2023/10/18 13:33:20;;;;;;;;;;;16.10;99.90;;;;;;5113925;28;19954;-68
2023/10/18 13:35:49;;;;;;;;;;;16.00;99.90;;;;;;5114096;28;20376;-67
2023/10/18 13:38:16;;;;;;;;;;;16.10;99.90;;;;;;5114416;28;19945;-67
2023/10/18 13:40:43;;;;;;;;;;;16.00;99.90;;;;;;5114549;28;19916;-71
2023/10/18 13:43:13;;;;;;;;;;;16.00;99.90;;;;;;5114342;28;19918;-68
2023/10/18 13:45:41;;;;;;;;;;;16.00;99.90;;;;;;5101950;28;19916;-69
2023/10/18 13:48:10;;;;;;;;;;;16.10;99.90;;;;;;5101358;28;19929;-69
2023/10/18 13:50:38;;;;;;;;;;;16.00;99.90;;;;;;5113684;28;20323;-67
2023/10/18 13:53:05;;;;;;;;;;;16.10;99.90;;;;;;5113988;28;19995;-73
2023/10/18 13:55:32;;;;;;;;;;;16.00;99.90;;;;;;5110617;28;19999;-69
2023/10/18 13:57:59;;;;;;;;;;;16.00;99.90;;;;;;5093550;28;19912;-71
2023/10/18 14:00:27;;;;;;;;;;;16.10;99.90;;;;;;5093242;28;19998;-72
2023/10/18 14:02:58;;;;;;;;;;;16.10;99.90;;;;;;5093695;28;20379;-73
2023/10/18 14:05:25;;;;;;;;;;;16.10;99.90;;;;;;5095382;28;20275;-74
2023/10/18 14:07:52;;;;;;;;;;;16.10;99.90;;;;;;5113886;28;20526;-69
2023/10/18 14:10:27;;;;;;;;;;;16.10;99.90;;;;;;5114133;28;19949;-73
2023/10/18 14:12:55;;;;;;;;;;;16.00;99.90;;;;;;5106126;28;19912;-69
2023/10/18 14:15:22;;;;;;;;;;;16.00;99.90;;;;;;5094244;28;20006;-73
2023/10/18 14:17:54;;;;;;;;;;;16.00;99.90;;;;;;5113213;28;19915;-70
2023/10/18 14:20:30;;;;;;;;;;;16.00;99.90;;;;;;5113595;28;20367;-74
2023/10/18 14:22:57;;;;;;;;;;;16.00;99.90;;;;;;5113519;28;20006;-73
2023/10/18 14:25:27;;;;;;;;;;;16.00;99.90;;;;;;5112313;28;19912;-69
2023/10/18 14:27:55;;;;;;;;;;;15.90;99.90;;;;;;5113841;28;19908;-71
2023/10/18 14:30:22;;;;;;;;;;;15.90;99.90;;;;;;5112336;28;19907;-69
2023/10/18 14:32:49;;;;;;;;;;;15.90;99.90;;;;;;5113397;28;19958;-70
2023/10/18 14:35:16;;;;;;;;;;;16.00;99.90;;;;;;5111830;28;19912;-70
2023/10/18 14:37:46;;;;;;;;;;;16.00;99.90;;;;;;5112690;28;19964;-74
2023/10/18 14:40:13;;;;;;;;;;;16.00;99.90;;;;;;5111556;28;19958;-74
2023/10/18 14:42:39;;;;;;;;;;;16.00;99.90;;;;;;5092827;28;19908;-69
2023/10/18 14:45:06;;;;;;;;;;;16.10;99.90;;;;;;5098728;28;20364;-71
2023/10/18 14:47:37;;;;;;;;;;;16.00;99.90;;;;;;5112657;28;19919;-74
2023/10/18 14:50:06;;;;;;;;;;;15.90;99.90;;;;;;5113044;28;19912;-71
2023/10/18 14:52:32;;;;;;;;;;;15.90;99.90;;;;;;5094890;28;20497;-70
2023/10/18 14:55:02;;;;;;;;;;;15.80;99.90;;;;;;5096645;28;20402;-70
2023/10/18 14:57:29;;;;;;;;;;;15.80;99.90;;;;;;5112923;28;19990;-71
2023/10/18 14:59:55;;;;;;;;;;;15.70;99.90;;;;;;5113055;28;19916;-65
2023/10/18 15:02:22;;;;;;;;;;;15.80;99.90;;;;;;5112869;28;20372;-71
2023/10/18 15:04:52;;;;;;;;;;;15.70;99.90;;;;;;5110452;28;20616;-72
2023/10/18 15:07:18;;;;;;;;;;;15.70;99.90;;;;;;5092682;28;20349;-71
2023/10/18 15:09:45;;;;;;;;;;;15.80;99.90;;;;;;5106440;28;19962;-72
2023/10/18 15:12:13;;;;;;;;;;;15.80;99.90;;;;;;5113073;28;19911;-74
2023/10/18 15:14:39;;;;;;;;;;;15.80;99.90;;;;;;5111400;28;20507;-73
2023/10/18 15:17:06;;;;;;;;;;;15.80;99.90;;;;;;5092843;28;19909;-72
2023/10/18 15:19:33;;;;;;;;;;;15.80;99.90;;;;;;5092658;28;19960;-73
2023/10/18 15:22:02;;;;;;;;;;;15.90;99.90;;;;;;5092564;28;19912;-72
2023/10/18 15:24:32;;;;;;;;;;;16.00;99.90;;;;;;5092601;28;19909;-72
2023/10/18 15:26:59;;;;;;;;;;;16.00;99.90;;;;;;5092402;28;19912;-75
2023/10/18 15:29:25;;;;;;;;;;;16.00;99.90;;;;;;5092389;28;20371;-73
2023/10/18 15:31:52;;;;;;;;;;;16.00;99.90;;;;;;5092366;28;20430;-67
2023/10/18 15:34:19;;;;;;;;;;;16.00;99.90;;;;;;5092425;28;19908;-73
2023/10/18 15:36:47;;;;;;;;;;;16.10;99.90;;;;;;5110964;28;19912;-71